• Join FlightAware (Why Join?)
  • Login
  • US Flag 
03:41AM EDT


 

Airport Tracker/Info


-or-


 

Live Flight TrackerFlight Track Log ✈ N199AN ✈ 05-May-2013 ✈ EGCC / MAN - KJFK

Flight Track Log - Related Links

Times and Time Zones

All times are in EDT time to prevent confusion due to time zone crossing. See the N199AN flight status page for this flight to view local times or setup timezone preferences in your user account.

Time Position Orientation Groundspeed Altitude Reporting Facility
EDT Latitude Longitude Course Direction KTS MPH feet Rate Location/Type
05:05AM 53.3460 -2.2920 90° East 153 176 600  Level FlightAware
05:05AM 53.3355 -2.3129 90° East 166 191 200 2,160 Descending FlightAware UK
05:05AM 53.3340 -2.3170 90° East 155 178 1,700 1,800 Climbing FlightAware
05:05AM 53.3214 -2.3406 90° East 174 200 1,100 2,400 Descending FlightAware UK
05:06AM 53.3170 -2.3540 90° East 161 185 3,100 5,280 Climbing FlightAware
05:06AM 53.3170 -2.3720 270° West 168 193 3,500 -1,200 Climbing FlightAware
05:06AM 53.3181 -2.3952 270° West 212 244 2,500 1,560 Descending FlightAware UK
05:06AM 53.3160 -2.4180 270° West 212 244 4,300 1,560 Climbing FlightAware
05:07AM 53.3156 -2.4453 270° West 246 283 3,300 1,680 Descending FlightAware UK
05:07AM 53.3130 -2.4610 270° West 236 272 5,000 2,400 Climbing FlightAware
05:07AM 53.3128 -2.5014 270° West 264 304 4,500 2,580 Descending FlightAware UK
05:07AM 53.3110 -2.5190 270° West 247 284 6,300 4,440 Climbing FlightAware
05:08AM 53.3090 -2.5650 266° West 257 296 7,100 1,380 Climbing FlightAware
05:08AM 53.3060 -2.6260 265° West 289 333 7,600 1,200 Climbing FlightAware
05:08AM 53.3040 -2.6640 265° West 303 349 8,000 -1,380 Climbing FlightAware
05:09AM 53.3041 -2.7056 265° West 338 389 6,900 1,680 Descending FlightAware UK
05:09AM 53.3020 -2.7220 265° West 317 365 8,700 5,460 Climbing FlightAware
05:09AM 53.3000 -2.7620 265° West 326 375 9,100 2,040 Climbing FlightAware
05:10AM 53.2950 -2.8590 265° West 332 382 10,600 900 Climbing FlightAware
05:10AM 53.2945 -2.9187 265° West 352 405 10,000 -360 Descending FlightAware UK
05:10AM 53.2931 -2.9644 267° West 372 428 10,400 5,040 Climbing FlightAware UK
05:11AM 53.2910 -2.9780 267° West 343 395 12,100 3,000 Climbing FlightAware
05:11AM 53.2909 -3.0427 267° West 362 417 11,900 2,040 Descending FlightAware UK
05:11AM 53.2980 -3.1150 267° West 357 411 14,000 1,680 Climbing FlightAware
05:12AM 53.3273 -3.2123 267° West 378 435 13,800 2,220 Descending FlightAware UK
05:12AM 53.3280 -3.2270 267° West 365 420 15,500 1,560 Climbing FlightAware
05:13AM 53.3486 -3.2889 267° West 390 449 14,600 1,560 Descending FlightAware UK
05:13AM 53.3600 -3.3420 267° West 376 433 16,700 1,620 Climbing FlightAware
05:13AM 53.3875 -3.4333 267° West 396 456 16,100 1,500 Descending FlightAware UK
05:14AM 53.3880 -3.4490 267° West 387 445 17,700 1,500 Climbing FlightAware
05:14AM 53.4045 -3.4990 267° West 400 460 16,700 -300 Descending FlightAware UK
05:14AM 53.4218 -3.5660 293° West 404 465 17,500 4,920 Climbing FlightAware UK
05:14AM 53.4190 -3.5710 293° West 389 448 19,000 1,500 Climbing FlightAware
05:15AM 53.4477 -3.6671 293° West 410 472 18,400 1,500 Descending FlightAware UK
05:15AM 53.4470 -3.6810 293° West 396 456 20,000 1,800 Climbing FlightAware
05:15AM 53.4736 -3.7697 293° West 412 474 19,500 2,100 Descending FlightAware UK
05:16AM 53.4760 -3.7970 293° West 393 452 21,400 1,800 Climbing FlightAware
05:16AM 53.4952 -3.8548 293° West 412 474 20,400 1,320 Descending FlightAware UK
05:16AM 53.5100 -3.9240 293° West 404 465 22,400 1,260 Climbing FlightAware
05:17AM 53.5316 -3.9913 293° West 422 486 21,400 1,320 Descending FlightAware UK
05:17AM 53.5400 -4.0380 293° West 410 472 23,300 1,740 Climbing FlightAware
05:18AM 53.5733 -4.1482 293° West 428 493 23,000 2,040 Descending FlightAware UK
05:18AM 53.5690 -4.1470 293° West 411 473 24,500 1,620 Climbing FlightAware
05:18AM 53.5877 -4.2003 293° West 428 493 23,500 -600 Descending FlightAware UK
05:18AM 53.6071 -4.2699 295° West 426 490 24,100 3,960 Climbing FlightAware UK
05:18AM 53.6080 -4.2940 295° West 418 481 25,700 660 Climbing FlightAware
05:19AM 53.6266 -4.4026 295° West 440 506 24,600 900 Descending FlightAware UK
05:19AM 53.6250 -4.4210 295° West 421 484 26,300 1,740 Climbing FlightAware
05:19AM 53.6319 -4.4804 295° West 440 506 25,300 -1,080 Descending FlightAware UK
05:20AM 53.6352 -4.5389 275° West 442 509 25,700 4,260 Climbing FlightAware UK
05:20AM 53.6330 -4.5680 275° West 424 488 27,300 660 Climbing FlightAware
05:20AM 53.6394 -4.6582 275° West 454 522 26,100 600 Descending FlightAware UK
05:21AM 53.6380 -4.7010 275° West 436 502 27,700 360 Climbing FlightAware
05:21AM 53.6439 -4.7594 275° West 458 527 26,300 -2,340 Descending FlightAware UK
05:21AM 53.6474 -4.8203 276° West 456 525 26,400 3,960 Climbing FlightAware UK
05:21AM 53.6450 -4.8360 276° West 437 503 27,900 240 Climbing FlightAware
05:22AM 53.6519 -4.9008 276° West 456 525 26,500 -2,340 Descending FlightAware UK
05:22AM 53.6551 -4.9614 275° West 454 522 26,500 3,300 Level FlightAware UK
05:22AM 53.6530 -4.9860 275° West 434 499 28,000  Climbing FlightAware
05:22AM 53.6605 -5.0622 275° West 454 522 26,500  Descending FlightAware UK
05:23AM 53.6600 -5.1210 275° West 430 495 28,000  Climbing FlightAware
05:23AM 53.6670 -5.1822 275° West 452 520 26,500 -2,220 Descending FlightAware UK
05:23AM 53.6716 -5.2618 276° West 452 520 26,500 3,180 Level FlightAware UK
05:23AM 53.6690 -5.2690 276° West 431 496 28,000 2,040 Climbing FlightAware
05:24AM 53.6770 -5.4080 276° West 433 498 28,000 -1,620 Level FlightAware
05:24AM 53.6831 -5.4620 276° West 452 520 26,500 -2,700 Descending FlightAware UK
05:25AM 53.6868 -5.5223 276° West 454 522 26,500 3,060 Level FlightAware UK
05:25AM 53.6860 -5.5580 276° West 434 499 28,000  Climbing FlightAware
05:25AM 53.6940 -5.6431 276° West 454 522 26,500  Descending FlightAware UK
05:25AM 53.6940 -5.6900 276° West 434 499 28,000  Climbing FlightAware
05:26AM 53.6999 -5.7440 276° West 454 522 26,500 -2,760 Descending FlightAware UK
05:26AM 53.7013 -5.8045 272° West 456 525 26,500 3,600 Level FlightAware UK
05:26AM 53.6990 -5.8250 272° West 431 496 28,000  Climbing FlightAware
05:26AM 53.7008 -5.8846 272° West 458 527 26,500 -2,400 Descending FlightAware UK
05:27AM 53.6992 -5.9443 267° West 452 520 26,600 4,020 Climbing FlightAware UK
05:27AM 53.6960 -5.9750 267° West 421 484 28,400 1,200 Climbing FlightAware
05:27AM 53.6957 -6.0425 267° West 456 525 27,200 -1,320 Descending FlightAware UK
05:28AM 53.6933 -6.1012 266° West 458 527 27,600 5,700 Climbing FlightAware UK
05:28AM 53.6910 -6.1050 266° West 428 493 29,100 960 Climbing FlightAware
05:28AM 53.6909 -6.1611 266° West 462 532 27,900 -1,440 Descending FlightAware UK
05:28AM 53.6883 -6.2215 266° West 462 532 28,300 4,320 Climbing FlightAware UK
05:28AM 53.6850 -6.2570 266° West 436 502 30,000 1,380 Climbing FlightAware
05:29AM 53.6840 -6.3228 266° West 472 543 29,000 -1,020 Descending FlightAware UK
05:29AM 53.6814 -6.3839 266° West 472 543 29,400 5,700 Climbing FlightAware UK
05:29AM 53.6790 -6.3940 266° West 437 503 31,000 1,320 Climbing FlightAware
05:29AM 53.6788 -6.4448 266° West 472 543 29,800 -1,140 Descending FlightAware UK
05:30AM 53.6762 -6.5059 266° West 468 539 30,400 5,280 Climbing FlightAware UK
05:30AM 53.6740 -6.5240 266° West 434 499 32,000 1,740 Climbing FlightAware
05:30AM 53.6735 -6.5869 266° West 464 534 31,100 -720 Descending FlightAware UK
05:30AM 53.6718 -6.6468 267° West 462 532 31,600 4,680 Climbing FlightAware UK
05:30AM 53.6690 -6.6790 267° West 430 495 33,300 1,380 Climbing FlightAware
05:31AM 53.6689 -6.7467 267° West 460 529 32,300 -960 Descending FlightAware UK
05:31AM 53.6670 -6.8063 267° West 460 529 32,700 6,000 Climbing FlightAware UK
05:31AM 53.6650 -6.8130 267° West 427 491 34,300 1,620 Climbing FlightAware
05:31AM 53.6651 -6.8659 267° West 462 532 33,200 -1,080 Descending FlightAware UK
05:32AM 53.6632 -6.9252 267° West 458 527 33,700 4,320 Climbing FlightAware UK
05:32AM 53.6600 -6.9630 267° West 422 486 35,300 600 Climbing FlightAware
05:32AM 53.6580 -7.0227 267° West 460 529 34,000 -1,980 Descending FlightAware UK
05:32AM 53.6548 -7.0815 265° West 460 529 34,100 4,800 Climbing FlightAware UK
05:32AM 53.6530 -7.0930 265° West 423 487 35,700 660 Climbing FlightAware
05:33AM 53.6518 -7.1403 265° West 460 529 34,300 -2,400 Descending FlightAware UK
05:33AM 53.6489 -7.1990 265° West 456 525 34,400 3,360 Climbing FlightAware UK
05:33AM 53.6460 -7.2360 265° West 420 483 36,000 180 Climbing FlightAware
05:34AM 53.6442 -7.2959 265° West 450 518 34,500 -2,520 Descending FlightAware UK
05:34AM 53.6413 -7.3545 265° West 450 518 34,500 4,080 Level FlightAware UK
05:34AM 53.6400 -7.3630 265° West 421 484 36,000  Climbing FlightAware
05:34AM 53.6372 -7.4326 265° West 450 518 34,500 -2,400 Descending FlightAware UK
05:35AM 53.6341 -7.4915 265° West 456 525 34,500 3,000 Level FlightAware UK
05:35AM 53.6310 -7.5330 265° West 425 489 36,000  Climbing FlightAware
05:35AM 53.6289 -7.5899 265° West 454 522 34,500  Descending FlightAware UK
05:35AM 53.6270 -7.6180 265° West 424 488 36,000  Climbing FlightAware
05:35AM 53.6249 -7.6689 265° West 454 522 34,500 -2,580 Descending FlightAware UK
05:36AM 53.6218 -7.7279 265° West 454 522 34,500 3,180 Level FlightAware UK
05:36AM 53.6200 -7.7620 265° West 423 487 36,000  Climbing FlightAware
05:36AM 53.6165 -7.8260 265° West 456 525 34,500 -2,400 Descending FlightAware UK
05:37AM 53.6134 -7.8848 265° West 456 525 34,500 3,600 Level FlightAware UK
05:37AM 53.6110 -7.9130 265° West 422 486 36,000  Climbing FlightAware
05:37AM 53.6090 -7.9632 265° West 456 525 34,500 -2,580 Descending FlightAware UK
05:37AM 53.6057 -8.0219 265° West 458 527 34,500 3,900 Level FlightAware UK
05:37AM 53.6040 -8.0430 265° West 421 484 36,000  Climbing FlightAware
05:38AM 53.6012 -8.1001 265° West 460 529 34,500 -2,460 Descending FlightAware UK
05:38AM 53.5979 -8.1585 265° West 456 525 34,500 4,260 Level FlightAware UK
05:38AM 53.5970 -8.1720 265° West 418 481 36,000  Climbing FlightAware
05:38AM 53.5946 -8.2166 265° West 452 520 34,500 -2,760 Descending FlightAware UK
05:39AM 53.5911 -8.2746 264° West 452 520 34,500 3,000 Level FlightAware UK
05:39AM 53.5890 -8.3170 264° West 417 480 36,000  Climbing FlightAware
05:39AM 53.5854 -8.3710 264° West 452 520 34,500 -2,520 Descending FlightAware UK
05:39AM 53.5821 -8.4286 264° West 452 520 34,500 4,080 Level FlightAware UK
05:39AM 53.5810 -8.4440 264° West 415 478 36,000  Climbing FlightAware
05:40AM 53.5776 -8.5047 264° West 454 522 34,500 -2,400 Descending FlightAware UK
05:40AM 53.5740 -8.5620 264° West 450 518 34,500 4,500 Level FlightAware UK
05:40AM 53.5740 -8.5650 264° West 414 476 36,000  Climbing FlightAware
05:40AM 53.5703 -8.6192 264° West 448 516 34,500 -2,700 Descending FlightAware UK
05:41AM 53.5667 -8.6765 264° West 450 518 34,500 3,720 Level FlightAware UK
05:41AM 53.5660 -8.6990 264° West 413 475 36,000  Climbing FlightAware
05:41AM 53.5620 -8.7529 264° West 450 518 34,500 -2,520 Descending FlightAware UK
05:41AM 53.5584 -8.8101 264° West 450 518 34,500 3,300 Level FlightAware UK
05:41AM 53.5570 -8.8430 264° West 412 474 36,000  Climbing FlightAware
05:42AM 53.5536 -8.8861 264° West 456 525 34,500 -2,760 Descending FlightAware UK
05:42AM 53.5499 -8.9432 264° West 452 520 34,500 4,500 Level FlightAware UK
05:42AM 53.5510 -8.9450 264° West 411 473 36,000  Climbing FlightAware
05:42AM 53.5463 -9.0001 264° West 446 513 34,500  Descending FlightAware UK
05:43AM 53.5380 -9.1430 264° West 410 472 36,000 840 Climbing FlightAware
05:44AM 53.5260 -9.3220 264° West 411 473 36,000  Level FlightAware
05:45AM 53.5160 -9.4670 263° West 413 475 36,000  Level FlightAware
05:45AM 53.5080 -9.5920 264° West 415 478 36,000  Level FlightAware
05:46AM 53.4990 -9.7190 263° West 418 481 36,000  Level FlightAware
05:47AM 53.4900 -9.8480 263° West 421 484 36,000  Level FlightAware
05:48AM 53.4790 -9.9950 263° West 422 486 36,000  Level FlightAware
05:48AM 53.4680 -10.1420 263° West 423 487 36,000  Level FlightAware
05:49AM 53.4590 -10.2710 263° West 423 487 36,000  Level FlightAware
05:50AM 53.4490 -10.4020 263° West 423 487 36,000  Level FlightAware
05:50AM 53.4380 -10.5490 263° West 421 484 36,000  Level FlightAware
05:51AM 53.4270 -10.6790 262° West 420 483 36,000  Level FlightAware
05:52AM 53.4160 -10.8230 263° West 419 482 36,000  Level FlightAware
05:52AM 53.4050 -10.9540 262° West 418 481 36,000  Level FlightAware
05:53AM 53.3930 -11.1000 262° West 418 481 36,000  Level FlightAware
05:54AM 53.3840 -11.2100 262° West 417 480 36,000  Level FlightAware
05:55AM 53.3720 -11.3560 262° West 417 480 36,000  Level FlightAware
05:55AM 53.3600 -11.4990 262° West 418 481 36,000  Level FlightAware
05:56AM 53.3500 -11.6110 262° West 419 482 36,000  Level FlightAware
05:57AM 53.3300 -11.8390 262° West 419 482 36,000  Level FlightAware
05:59AM 53.2890 -12.2860 279° West 420 483 36,000  Level FlightAware
06:00AM 53.3706 -12.2918 279° West  Level Estimated
06:00AM 53.2750 -12.4340 261° West 420 483 36,000  Level FlightAware
06:01AM 53.2610 -12.5760 261° West 419 482 36,000  Level FlightAware
06:02AM 53.2460 -12.7390 261° West 417 480 36,000  Level FlightAware
06:02AM 53.2350 -12.8410 260° West 417 480 36,000  Level FlightAware
06:03AM 53.2210 -12.9790 260° West 417 480 36,000  Level FlightAware
06:04AM 53.2060 -13.1400 261° West 416 479 36,000  Level FlightAware
06:05AM 53.1930 -13.2690 261° West 415 478 36,000  Level FlightAware
06:05AM 53.1780 -13.4070 260° West 413 475 36,000  Level FlightAware
06:06AM 53.1630 -13.5620 261° West 413 475 36,000  Level FlightAware
06:07AM 53.1530 -13.6690 261° West 413 475 36,000  Level FlightAware
06:08AM 53.1430 -13.7760 261° West 413 475 36,000  Level FlightAware
06:08AM 53.1320 -13.8830 260° West 413 475 36,000  Level FlightAware
06:09AM 53.1220 -13.9900 261° West 413 475 36,000  Level FlightAware
06:10AM 53.1100 -14.1240 262° West 413 475 36,000  Level FlightAware
06:10AM 53.0990 -14.2310 260° West 413 475 36,000  Level FlightAware
06:11AM 53.0890 -14.3380 261° West 413 475 36,000  Level FlightAware
06:12AM 53.0790 -14.4450 261° West 413 475 36,000  Level FlightAware
06:12AM 53.0690 -14.5510 261° West 413 475 36,000  Level FlightAware
06:13AM 53.0560 -14.6850 261° West 413 475 36,000  Level FlightAware
06:14AM 53.0460 -14.7920 261° West 413 475 36,000  Level FlightAware
06:15AM 53.0360 -14.8980 261° West 413 475 36,000  Level FlightAware
06:15AM 53.0260 -15.0050 261° West 413 475 36,000  Level FlightAware
06:18AM 53.0565 -15.4408 277° West  Level Estimated
06:19AM 53.0692 -15.6304 276° West  Level Estimated
06:20AM 53.0817 -15.8201 276° West  Level Estimated
06:21AM 53.0938 -16.0100 276° West  Level Estimated
06:22AM 53.1056 -16.2000 276° West  Level Estimated
06:23AM 53.1172 -16.3900 276° West  Level Estimated
06:24AM 53.1284 -16.5802 276° West  Level Estimated
06:25AM 53.1394 -16.7705 276° West  Level Estimated
06:26AM 53.1500 -16.9608 275° West  Level Estimated
06:27AM 53.1603 -17.1513 275° West  Level Estimated
06:28AM 53.1703 -17.3419 275° West  Level Estimated
06:29AM 53.1800 -17.5325 275° West  Level Estimated
06:30AM 53.1895 -17.7232 275° West  Level Estimated
06:31AM 53.1986 -17.9140 275° West  Level Estimated
06:32AM 53.2074 -18.1049 274° West  Level Estimated
06:33AM 53.2159 -18.2959 274° West  Level Estimated
06:34AM 53.2241 -18.4869 274° West  Level Estimated
06:35AM 53.2321 -18.6828 274° West  Level Estimated
06:36AM 53.2399 -18.8788 274° West  Level Estimated
06:37AM 53.2473 -19.0749 274° West  Level Estimated
06:38AM 53.2545 -19.2710 274° West  Level Estimated
06:39AM 53.2613 -19.4672 273° West  Level Estimated
06:40AM 53.2677 -19.6635 273° West  Level Estimated
06:41AM 53.2739 -19.8598 273° West  Level Estimated
06:42AM 53.2797 -20.0562 273° West  Level Estimated
06:43AM 53.2852 -20.2526 273° West  Level Estimated
06:43AM 52.0000 -20.0000 256° West 416 479 36,000  Level ETMS Enhanced Traffic Management System
06:44AM 53.2904 -20.4491 273° West  Level Estimated
06:45AM 53.2953 -20.6456 272° West  Level Estimated
06:46AM 53.2998 -20.8422 272° West  Level Estimated
06:47AM 53.3040 -21.0388 272° West  Level Estimated
06:48AM 53.3079 -21.2354 272° West  Level Estimated
06:49AM 51.7718 -21.4538 255° West 416 479 36,000  Level FlightAware Transoceanic
06:50AM 51.7420 -21.6345 255° West 416 479 36,000  Level FlightAware Transoceanic
06:51AM 51.7119 -21.8150 255° West 416 479 36,000  Level FlightAware Transoceanic
06:52AM 51.6816 -21.9952 255° West 416 479 36,000  Level FlightAware Transoceanic
06:53AM 51.6510 -22.1751 255° West 416 479 36,000  Level FlightAware Transoceanic
06:54AM 51.6201 -22.3548 254° West 416 479 36,000  Level FlightAware Transoceanic
06:55AM 51.5889 -22.5343 254° West 416 479 36,000  Level FlightAware Transoceanic
06:56AM 51.5575 -22.7135 254° West 416 479 36,000  Level FlightAware Transoceanic
06:57AM 51.5258 -22.8925 254° West 416 479 36,000  Level FlightAware Transoceanic
06:58AM 51.4938 -23.0712 254° West 416 479 36,000  Level FlightAware Transoceanic
06:59AM 51.4616 -23.2497 254° West 416 479 36,000  Level FlightAware Transoceanic
07:00AM 51.4290 -23.4279 254° West 416 479 36,000  Level FlightAware Transoceanic
07:01AM 51.3963 -23.6059 253° West 416 479 36,000  Level FlightAware Transoceanic
07:02AM 51.3632 -23.7836 253° West 416 479 36,000  Level FlightAware Transoceanic
07:03AM 51.3299 -23.9610 253° West 416 479 36,000  Level FlightAware Transoceanic
07:04AM 51.2963 -24.1382 253° West 416 479 36,000  Level FlightAware Transoceanic
07:05AM 51.2624 -24.3151 253° West 416 479 36,000  Level FlightAware Transoceanic
07:06AM 51.2283 -24.4918 253° West 416 479 36,000  Level FlightAware Transoceanic
07:07AM 51.1939 -24.6682 253° West 416 479 36,000  Level FlightAware Transoceanic
07:08AM 51.1592 -24.8443 253° West 416 479 36,000  Level FlightAware Transoceanic
07:09AM 51.1243 -25.0202 252° West 416 479 36,000  Level FlightAware Transoceanic
07:10AM 51.0891 -25.1958 252° West 416 479 36,000  Level FlightAware Transoceanic
07:11AM 51.0537 -25.3712 252° West 416 479 36,000  Level FlightAware Transoceanic
07:12AM 51.0180 -25.5462 252° West 416 479 36,000  Level FlightAware Transoceanic
07:13AM 50.9820 -25.7210 252° West 416 479 36,000  Level FlightAware Transoceanic
07:14AM 50.9458 -25.8956 252° West 416 479 36,000  Level FlightAware Transoceanic
07:15AM 50.9093 -26.0698 252° West 416 479 36,000  Level FlightAware Transoceanic
07:16AM 50.8725 -26.2438 251° West 416 479 36,000  Level FlightAware Transoceanic
07:17AM 50.8355 -26.4175 251° West 416 479 36,000  Level FlightAware Transoceanic
07:18AM 50.7982 -26.5909 251° West 416 479 36,000  Level FlightAware Transoceanic
07:19AM 50.7607 -26.7641 251° West 416 479 36,000  Level FlightAware Transoceanic
07:20AM 50.7229 -26.9370 251° West 416 479 36,000  Level FlightAware Transoceanic
07:21AM 50.6849 -27.1096 251° West 416 479 36,000  Level FlightAware Transoceanic
07:22AM 50.6466 -27.2819 251° West 416 479 36,000  Level FlightAware Transoceanic
07:23AM 50.6081 -27.4539 250° West 416 479 36,000  Level FlightAware Transoceanic
07:24AM 50.5693 -27.6257 250° West 416 479 36,000  Level FlightAware Transoceanic
07:25AM 50.5302 -27.7971 250° West 416 479 36,000  Level FlightAware Transoceanic
07:26AM 50.4909 -27.9683 250° West 416 479 36,000  Level FlightAware Transoceanic
07:27AM 50.4514 -28.1392 250° West 416 479 36,000  Level FlightAware Transoceanic
07:28AM 50.4116 -28.3098 250° West 416 479 36,000  Level FlightAware Transoceanic
07:29AM 50.3715 -28.4802 250° West 416 479 36,000  Level FlightAware Transoceanic
07:30AM 50.3312 -28.6502 250° West 416 479 36,000  Level FlightAware Transoceanic
07:31AM 50.2907 -28.8199 249° West 416 479 36,000  Level FlightAware Transoceanic
07:32AM 50.2499 -28.9894 249° West 416 479 36,000  Level FlightAware Transoceanic
07:33AM 50.2089 -29.1586 249° West 416 479 36,000  Level FlightAware Transoceanic
07:34AM 50.1676 -29.3274 249° West 416 479 36,000  Level FlightAware Transoceanic
07:35AM 50.1260 -29.4960 249° West 416 479 36,000  Level FlightAware Transoceanic
07:36AM 50.0843 -29.6643 249° West 416 479 36,000  Level FlightAware Transoceanic
07:37AM 50.0423 -29.8323 249° West 416 479 36,000  Level FlightAware Transoceanic
07:38AM 49.9993 -30.0026 249° West  Level FlightAware Approximate
07:39AM 49.9997 -30.0057 265° West  Level FlightAware Approximate
07:40AM 49.9892 -30.1878 265° West  Level FlightAware Approximate
07:41AM 49.9783 -30.3699 265° West  Level FlightAware Approximate
07:42AM 49.9672 -30.5519 265° West  Level FlightAware Approximate
07:42AM 50.0000 -30.0000 265° West 414 476 36,000  Level ETMS Enhanced Traffic Management System
07:43AM 49.9559 -30.7338 265° West  Level FlightAware Approximate
07:44AM 49.9442 -30.9156 264° West  Level FlightAware Approximate
07:45AM 49.9323 -31.0973 264° West  Level FlightAware Approximate
07:46AM 49.9200 -31.2789 264° West  Level FlightAware Approximate
07:47AM 49.9075 -31.4605 264° West  Level FlightAware Approximate
07:48AM 49.9121 -31.4258 264° West 414 476 36,000  Level FlightAware Transoceanic
07:49AM 49.8999 -31.6037 264° West 414 476 36,000  Level FlightAware Transoceanic
07:50AM 49.8874 -31.7814 264° West 414 476 36,000  Level FlightAware Transoceanic
07:51AM 49.8747 -31.9591 264° West 414 476 36,000  Level FlightAware Transoceanic
07:52AM 49.8617 -32.1367 263° West 414 476 36,000  Level FlightAware Transoceanic
07:53AM 49.8484 -32.3141 263° West 414 476 36,000  Level FlightAware Transoceanic
07:54AM 49.8348 -32.4915 263° West 414 476 36,000  Level FlightAware Transoceanic
07:55AM 49.8210 -32.6688 263° West 414 476 36,000  Level FlightAware Transoceanic
07:56AM 49.8069 -32.8460 263° West 414 476 36,000  Level FlightAware Transoceanic
07:57AM 49.7925 -33.0230 263° West 414 476 36,000  Level FlightAware Transoceanic
07:58AM 49.7778 -33.2000 263° West 414 476 36,000  Level FlightAware Transoceanic
07:59AM 49.7629 -33.3768 262° West 414 476 36,000  Level FlightAware Transoceanic
08:00AM 49.7477 -33.5536 262° West 414 476 36,000  Level FlightAware Transoceanic
08:01AM 49.7323 -33.7302 262° West 414 476 36,000  Level FlightAware Transoceanic
08:02AM 49.7165 -33.9067 262° West 414 476 36,000  Level FlightAware Transoceanic
08:03AM 49.7006 -34.0831 262° West 414 476 36,000  Level FlightAware Transoceanic
08:04AM 49.6843 -34.2594 262° West 414 476 36,000  Level FlightAware Transoceanic
08:05AM 49.6678 -34.4356 262° West 414 476 36,000  Level FlightAware Transoceanic
08:06AM 49.6510 -34.6116 262° West 414 476 36,000  Level FlightAware Transoceanic
08:07AM 49.6339 -34.7876 261° West 414 476 36,000  Level FlightAware Transoceanic
08:08AM 49.6166 -34.9634 261° West 414 476 36,000  Level FlightAware Transoceanic
08:09AM 49.5990 -35.1390 261° West 414 476 36,000  Level FlightAware Transoceanic
08:10AM 49.5812 -35.3146 261° West 414 476 36,000  Level FlightAware Transoceanic
08:11AM 49.5630 -35.4900 261° West 414 476 36,000  Level FlightAware Transoceanic
08:12AM 49.5446 -35.6653 261° West 414 476 36,000  Level FlightAware Transoceanic
08:13AM 49.5260 -35.8404 261° West 414 476 36,000  Level FlightAware Transoceanic
08:14AM 49.5071 -36.0155 260° West 414 476 36,000  Level FlightAware Transoceanic
08:15AM 49.4879 -36.1903 260° West 414 476 36,000  Level FlightAware Transoceanic
08:16AM 49.4684 -36.3651 260° West 414 476 36,000  Level FlightAware Transoceanic
08:17AM 49.4487 -36.5397 260° West 414 476 36,000  Level FlightAware Transoceanic
08:18AM 49.4288 -36.7142 260° West 414 476 36,000  Level FlightAware Transoceanic
08:19AM 49.4085 -36.8885 260° West 414 476 36,000  Level FlightAware Transoceanic
08:20AM 49.3880 -37.0626 260° West 414 476 36,000  Level FlightAware Transoceanic
08:21AM 49.3673 -37.2367 260° West 414 476 36,000  Level FlightAware Transoceanic
08:22AM 49.3463 -37.4106 259° West 414 476 36,000  Level FlightAware Transoceanic
08:23AM 49.3250 -37.5843 259° West 414 476 36,000  Level FlightAware Transoceanic
08:24AM 49.3035 -37.7579 259° West 414 476 36,000  Level FlightAware Transoceanic
08:25AM 49.2817 -37.9313 259° West 414 476 36,000  Level FlightAware Transoceanic
08:26AM 49.2596 -38.1046 259° West 414 476 36,000  Level FlightAware Transoceanic
08:27AM 49.2373 -38.2777 259° West 414 476 36,000  Level FlightAware Transoceanic
08:28AM 49.2147 -38.4507 259° West 414 476 36,000  Level FlightAware Transoceanic
08:29AM 49.1919 -38.6235 259° West 414 476 36,000  Level FlightAware Transoceanic
08:30AM 49.1688 -38.7961 258° West 414 476 36,000  Level FlightAware Transoceanic
08:31AM 49.1455 -38.9686 258° West 414 476 36,000  Level FlightAware Transoceanic
08:32AM 49.1218 -39.1409 258° West 414 476 36,000  Level FlightAware Transoceanic
08:33AM 49.0980 -39.3131 258° West 414 476 36,000  Level FlightAware Transoceanic
08:34AM 49.0739 -39.4851 258° West 414 476 36,000  Level FlightAware Transoceanic
08:35AM 49.0495 -39.6569 258° West 414 476 36,000  Level FlightAware Transoceanic
08:36AM 49.0249 -39.8285 258° West 414 476 36,000  Level FlightAware Transoceanic
08:37AM 48.9995 -40.0035 258° West  Level FlightAware Approximate
08:38AM 48.9989 -40.0071 257° West  Level FlightAware Approximate
08:39AM 48.9726 -40.1816 257° West  Level FlightAware Approximate
08:40AM 48.9460 -40.3561 257° West  Level FlightAware Approximate
08:41AM 48.9191 -40.5303 257° West  Level FlightAware Approximate
08:41AM 49.0000 -40.0000 257° West 433 498 36,000  Level ETMS Enhanced Traffic Management System
08:42AM 48.8920 -40.7043 257° West  Level FlightAware Approximate
08:43AM 48.8646 -40.8782 257° West  Level FlightAware Approximate
08:44AM 48.8369 -41.0518 256° West  Level FlightAware Approximate
08:45AM 48.8090 -41.2253 256° West  Level FlightAware Approximate
08:46AM 48.7808 -41.3985 256° West  Level FlightAware Approximate
08:47AM 48.7181 -41.7777 256° West 433 498 36,000  Level FlightAware Transoceanic
08:48AM 48.6884 -41.9544 256° West 433 498 36,000  Level FlightAware Transoceanic
08:49AM 48.6585 -42.1309 256° West 433 498 36,000  Level FlightAware Transoceanic
08:50AM 48.6283 -42.3071 255° West 433 498 36,000  Level FlightAware Transoceanic
08:51AM 48.5978 -42.4831 255° West 433 498 36,000  Level FlightAware Transoceanic
08:52AM 48.5670 -42.6589 255° West 433 498 36,000  Level FlightAware Transoceanic
08:53AM 48.5360 -42.8345 255° West 433 498 36,000  Level FlightAware Transoceanic
08:54AM 48.5047 -43.0099 255° West 433 498 36,000  Level FlightAware Transoceanic
08:55AM 48.4731 -43.1851 255° West 433 498 36,000  Level FlightAware Transoceanic
08:56AM 48.4413 -43.3600 255° West 433 498 36,000  Level FlightAware Transoceanic
08:57AM 48.4092 -43.5348 254° West 433 498 36,000  Level FlightAware Transoceanic
08:58AM 48.3768 -43.7093 254° West 433 498 36,000  Level FlightAware Transoceanic
08:59AM 48.3442 -43.8835 254° West 433 498 36,000  Level FlightAware Transoceanic
09:00AM 48.3113 -44.0576 254° West 433 498 36,000  Level FlightAware Transoceanic
09:01AM 48.2782 -44.2314 254° West 433 498 36,000  Level FlightAware Transoceanic
09:02AM 48.2448 -44.4050 254° West 433 498 36,000  Level FlightAware Transoceanic
09:03AM 48.2111 -44.5784 254° West 433 498 36,000  Level FlightAware Transoceanic
09:04AM 48.1772 -44.7516 254° West 433 498 36,000  Level FlightAware Transoceanic
09:05AM 48.1430 -44.9245 253° West 433 498 36,000  Level FlightAware Transoceanic
09:06AM 48.1086 -45.0972 253° West 433 498 36,000  Level FlightAware Transoceanic
09:07AM 48.0739 -45.2696 253° West 433 498 36,000  Level FlightAware Transoceanic
09:08AM 48.0389 -45.4419 253° West 433 498 36,000  Level FlightAware Transoceanic
09:09AM 48.0037 -45.6138 253° West 433 498 36,000  Level FlightAware Transoceanic
09:10AM 47.9682 -45.7856 253° West 433 498 36,000  Level FlightAware Transoceanic
09:11AM 47.9325 -45.9571 253° West 433 498 36,000  Level FlightAware Transoceanic
09:12AM 47.8965 -46.1284 253° West 433 498 36,000  Level FlightAware Transoceanic
09:13AM 47.8602 -46.2994 252° West 433 498 36,000  Level FlightAware Transoceanic
09:14AM 47.8237 -46.4702 252° West 433 498 36,000  Level FlightAware Transoceanic
09:15AM 47.7870 -46.6408 252° West 433 498 36,000  Level FlightAware Transoceanic
09:16AM 47.7500 -46.8111 252° West 433 498 36,000  Level FlightAware Transoceanic
09:17AM 47.7127 -46.9812 252° West 433 498 36,000  Level FlightAware Transoceanic
09:18AM 47.6753 -47.1510 252° West 433 498 36,000  Level FlightAware Transoceanic
09:19AM 47.6375 -47.3206 252° West 433 498 36,000  Level FlightAware Transoceanic
09:20AM 47.5995 -47.4900 252° West 433 498 36,000  Level FlightAware Transoceanic
09:21AM 47.5612 -47.6590 251° West 433 498 36,000  Level FlightAware Transoceanic
09:22AM 47.5228 -47.8279 251° West 433 498 36,000  Level FlightAware Transoceanic
09:23AM 47.4840 -47.9965 251° West 433 498 36,000  Level FlightAware Transoceanic
09:24AM 47.4450 -48.1648 251° West 433 498 36,000  Level FlightAware Transoceanic
09:25AM 47.4058 -48.3330 251° West 433 498 36,000  Level FlightAware Transoceanic
09:26AM 47.3663 -48.5008 251° West 433 498 36,000  Level FlightAware Transoceanic
09:27AM 47.3265 -48.6684 251° West 433 498 36,000  Level FlightAware Transoceanic
09:28AM 47.2866 -48.8357 251° West 433 498 36,000  Level FlightAware Transoceanic
09:29AM 47.2464 -49.0028 250° West 433 498 36,000  Level FlightAware Transoceanic
09:30AM 47.2059 -49.1697 250° West 433 498 36,000  Level FlightAware Transoceanic
09:31AM 47.1652 -49.3362 250° West 433 498 36,000  Level FlightAware Transoceanic
09:31AM 47.1560 -49.3790 250° West 458 527 36,000  Level FlightAware
09:32AM 47.1243 -49.5026 250° West 433 498 36,000  Level FlightAware Transoceanic
09:32AM 47.1040 -49.5880 250° West 460 529 36,000  Level FlightAware
09:32AM 47.0800 -49.6860 250° West 462 532 36,000  Level FlightAware
09:33AM 47.0370 -49.8530 249° West 462 532 36,000  Level FlightAware
09:34AM 47.0060 -49.9780 250° West 462 532 36,000  Level FlightAware
09:35AM 47.0000 -50.0000 259° West 416 479 36,000  Level ETMS Enhanced Traffic Management System
09:35AM 46.9890 -50.0890 257° West 462 532 36,000  Level FlightAware
09:35AM 46.9600 -50.2150 251° West 462 532 36,000  Level FlightAware
09:36AM 46.9510 -50.4020 266° West 457 526 36,000  Level FlightAware
09:37AM 46.9360 -50.5280 260° West 36,000  Level FlightAware
09:38AM 46.9190 -50.6560 259° West 458 527 36,000  Level FlightAware
09:38AM 46.9050 -50.7590 259° West 458 527 36,000  Level FlightAware
09:39AM 46.8920 -50.8630 260° West 458 527 36,000  Level FlightAware
09:40AM 46.8680 -51.0670 260° West 459 528 36,000  Level FlightAware
09:41AM 46.8666 -51.0007 260° West  Level FlightAware Approximate
09:41AM 46.8520 -51.1920 260° West 458 527 36,000  Level FlightAware
09:41AM 46.8390 -51.2900 259° West 459 528 36,000  Level FlightAware
09:42AM 46.8210 -51.4270 259° West 460 529 36,000  Level FlightAware
09:43AM 46.8000 -51.5900 259° West 460 529 36,000  Level FlightAware
09:44AM 46.7820 -51.7220 259° West 460 529 36,000 60 Level FlightAware
09:44AM 46.7650 -51.8500 259° West 457 526 36,100 600 Climbing FlightAware
09:45AM 46.7490 -51.9700 259° West 457 526 36,800 1,080 Climbing FlightAware
09:46AM 46.7300 -52.1100 259° West 461 531 37,700 840 Climbing FlightAware
09:46AM 46.7140 -52.2260 259° West 468 539 38,000 180 Climbing FlightAware
09:47AM 46.6960 -52.3560 259° West 470 541 38,000  Level FlightAware
09:48AM 46.6770 -52.4910 258° West 464 534 38,000  Level FlightAware
09:48AM 46.6580 -52.6110 257° West 461 531 38,000  Level FlightAware
09:49AM 46.6340 -52.7500 256° West 461 531 38,000  Level FlightAware
09:50AM 46.6180 -52.8470 257° West 460 529 38,000  Level FlightAware
09:50AM 46.5960 -52.9730 256° West 460 529 38,000 120 Level FlightAware
09:51AM 46.5740 -53.1050 256° West 456 525 38,200 420 Climbing FlightAware
09:52AM 46.5530 -53.2240 256° West 449 517 38,600 480 Climbing FlightAware
09:53AM 46.5330 -53.3410 256° West 448 516 38,900 300 Climbing FlightAware
09:53AM 46.5150 -53.4450 256° West 450 518 39,000 60 Climbing FlightAware
09:54AM 46.4890 -53.5920 256° West 450 518 39,000  Level FlightAware
09:55AM 46.4680 -53.7080 255° West 448 516 39,000  Level FlightAware
09:55AM 46.4470 -53.8260 256° West 447 514 39,000  Level FlightAware
09:56AM 46.4260 -53.9420 255° West 446 513 39,000  Level FlightAware
09:57AM 46.4070 -54.0510 256° West 445 512 39,000  Level FlightAware
09:57AM 46.3870 -54.1530 254° West 444 511 39,000  Level FlightAware
09:58AM 46.3690 -54.2510 255° West 444 511 39,000  Level FlightAware
09:59AM 46.3470 -54.3730 255° West 444 511 39,000  Level FlightAware
09:59AM 46.3290 -54.4710 255° West 444 511 39,000  Level FlightAware
10:00AM 46.3110 -54.5690 255° West 444 511 39,000  Level FlightAware
10:01AM 46.2680 -54.7980 255° West 441 507 39,000  Level FlightAware
10:02AM 46.2390 -54.9470 254° West 442 509 39,000  Level FlightAware
10:03AM 46.2160 -55.0710 255° West 39,000  Level FlightAware
10:03AM 46.1920 -55.1970 255° West 444 511 39,000  Level FlightAware
10:04AM 46.1670 -55.3250 254° West 445 512 39,000  Level FlightAware
10:05AM 46.1470 -55.4260 254° West 445 512 39,000  Level FlightAware
10:05AM 46.1230 -55.5460 254° West 445 512 39,000  Level FlightAware
10:06AM 46.0960 -55.6850 254° West 446 513 39,000  Level FlightAware
10:07AM 46.0710 -55.8130 254° West 445 512 39,000  Level FlightAware
10:08AM 46.0480 -55.9270 254° West 445 512 39,000  Level FlightAware
10:08AM 46.0240 -56.0450 254° West 445 512 39,000  Level FlightAware
10:09AM 46.0010 -56.1590 254° West 445 512 39,000  Level FlightAware
10:10AM 45.9760 -56.2840 254° West 446 513 39,000  Level FlightAware
10:11AM 45.9440 -56.4350 253° West 446 513 39,000  Level FlightAware
10:11AM 45.9240 -56.5360 254° West 446 513 39,000  Level FlightAware
10:12AM 45.8990 -56.6510 253° West 446 513 39,000  Level FlightAware
10:13AM 45.8730 -56.7720 253° West 446 513 39,000  Level FlightAware
10:13AM 45.8530 -56.8680 253° West 446 513 39,000  Level FlightAware
10:14AM 45.8320 -56.9650 253° West 446 513 39,000  Level FlightAware
10:15AM 45.8170 -57.0370 253° West 446 513 39,000  Level FlightAware
10:15AM 45.7960 -57.1330 253° West 446 513 39,000  Level FlightAware
10:16AM 45.7760 -57.2290 253° West 446 513 39,000  Level FlightAware
10:17AM 45.7550 -57.3250 253° West 446 513 39,000  Level FlightAware
10:17AM 45.7400 -57.3980 254° West 446 513 39,000  Level FlightAware
10:18AM 45.6840 -57.6610 253° West 439 505 39,000  Level FlightAware
10:18AM 45.6660 -57.7440 253° West 439 505 39,000  Level FlightAware
10:19AM 45.6400 -57.8570 252° West 438 504 39,000  Level FlightAware
10:19AM 45.6270 -57.9170 253° West 438 504 39,000  Level FlightAware
10:20AM 45.5950 -58.0600 252° West 438 504 39,000  Level FlightAware
10:21AM 45.5700 -58.1720 252° West 438 504 39,000  Level FlightAware
10:21AM 45.5530 -58.2500 253° West 437 503 39,000  Level FlightAware
10:22AM 45.5210 -58.3900 252° West 437 503 39,000  Level FlightAware
10:23AM 45.4970 -58.4960 252° West 436 502 39,000  Level FlightAware
10:24AM 45.4680 -58.6220 252° West 436 502 39,000  Level FlightAware
10:24AM 45.4400 -58.7440 252° West 436 502 39,000  Level FlightAware
10:25AM 45.4150 -58.8490 251° West 437 503 39,000  Level FlightAware
10:26AM 45.3900 -58.9570 252° West 437 503 39,000  Level FlightAware
10:26AM 45.3710 -59.0410 252° West 437 503 39,000  Level FlightAware
10:27AM 45.3450 -59.1510 251° West 437 503 39,000  Level FlightAware
10:28AM 45.3220 -59.2480 251° West 437 503 39,000  Level FlightAware
10:28AM 45.2960 -59.3580 251° West 437 503 39,000  Level FlightAware
10:29AM 45.2630 -59.4920 251° West 438 504 39,000  Level FlightAware
10:30AM 45.2410 -59.5860 252° West 438 504 39,000  Level FlightAware
10:30AM 45.2150 -59.6940 251° West 438 504 39,000  Level FlightAware
10:31AM 45.1890 -59.8020 251° West 438 504 39,000  Level FlightAware
10:32AM 45.1580 -59.9270 251° West 440 506 39,000  Level FlightAware
10:32AM 45.1320 -60.0350 251° West 441 507 39,000  Level FlightAware
10:33AM 45.1050 -60.1440 251° West 441 507 39,000  Level FlightAware
10:34AM 45.0750 -60.2630 250° West 443 510 39,000  Level FlightAware
10:34AM 45.0550 -60.3470 251° West 443 510 39,000  Level FlightAware
10:35AM 45.0300 -60.4440 250° West 443 510 39,000  Level FlightAware
10:36AM 44.9950 -60.5830 250° West 443 510 39,000  Level FlightAware
10:36AM 44.9710 -60.6820 251° West 443 510 39,000  Level FlightAware
10:37AM 44.9420 -60.7930 250° West 443 510 39,000  Level FlightAware
10:38AM 44.9180 -60.8850 250° West 443 510 39,000  Level FlightAware
10:38AM 44.8940 -60.9780 250° West 443 510 39,000  Level FlightAware
10:39AM 44.8710 -61.0700 251° West 443 510 39,000  Level FlightAware
10:40AM 44.8410 -61.1850 250° West 443 510 39,000  Level FlightAware
10:41AM 44.8170 -61.2780 250° West 443 510 39,000  Level FlightAware
10:41AM 44.7930 -61.3700 250° West 443 510 39,000  Level FlightAware
10:42AM 44.7690 -61.4620 250° West 443 510 39,000  Level FlightAware
10:43AM 44.7450 -61.5550 250° West 443 510 39,000  Level FlightAware
10:43AM 44.7160 -61.6700 250° West 443 510 39,000  Level FlightAware
10:44AM 44.6920 -61.7620 250° West 443 510 39,000  Level FlightAware
10:45AM 44.6680 -61.8540 250° West 443 510 39,000  Level FlightAware
10:46AM 44.5790 -62.1830 249° West 452 520 39,000  Level FlightAware
10:46AM 44.5450 -62.3080 249° West 454 522 39,000  Level FlightAware
10:47AM 44.5190 -62.4020 249° West 454 522 39,000  Level FlightAware
10:48AM 44.4930 -62.4950 249° West 454 522 39,000  Level FlightAware
10:48AM 44.4530 -62.6450 250° West 455 524 39,000  Level FlightAware
10:49AM 44.4210 -62.7600 249° West 456 525 39,000  Level FlightAware
10:50AM 44.3910 -62.8700 249° West 456 525 39,000  Level FlightAware
10:50AM 44.3610 -62.9760 248° West 457 526 39,000  Level FlightAware
10:51AM 44.3280 -63.0960 249° West 457 526 39,000  Level FlightAware
10:52AM 44.2930 -63.2220 249° West 458 527 39,000  Level FlightAware
10:53AM 44.2630 -63.3280 248° West 457 526 39,000  Level FlightAware
10:53AM 44.2350 -63.4280 249° West 457 526 39,000  Level FlightAware
10:54AM 44.1990 -63.5530 248° West 457 526 39,000  Level FlightAware
10:55AM 44.1670 -63.6640 248° West 456 525 39,000  Level FlightAware
10:55AM 44.1380 -63.7660 248° West 456 525 39,000  Level FlightAware
10:56AM 44.1070 -63.8750 248° West 456 525 39,000  Level FlightAware
10:57AM 44.0750 -63.9850 248° West 457 526 39,000  Level FlightAware
10:57AM 44.0500 -64.0710 248° West 457 526 39,000  Level FlightAware
10:58AM 44.0230 -64.1640 248° West 457 526 39,000  Level FlightAware
10:59AM 43.9900 -64.2790 248° West 457 526 39,000  Level FlightAware
10:59AM 43.9480 -64.4200 248° West 457 526 39,000  Level FlightAware
11:00AM 43.9150 -64.5340 248° West 457 526 39,000  Level FlightAware
11:01AM 43.8840 -64.6360 247° West 460 529 39,000  Level FlightAware
11:01AM 43.8450 -64.7700 248° West 459 528 39,000  Level FlightAware
11:02AM 43.7960 -64.9320 247° West 459 528 39,000  Level FlightAware
11:03AM 43.7670 -65.0280 247° West 458 527 39,000  Level FlightAware
11:04AM 43.7310 -65.1490 248° West 456 525 39,000  Level FlightAware
11:05AM 43.6830 -65.3080 247° West 451 519 39,000  Level FlightAware
11:05AM 43.6500 -65.4150 247° West 447 514 39,000  Level FlightAware
11:06AM 43.6170 -65.5240 247° West 454 522 39,000  Level FlightAware
11:07AM 43.5900 -65.6120 247° West 456 525 39,000  Level FlightAware
11:07AM 43.5560 -65.7240 247° West 457 526 39,000  Level FlightAware
11:08AM 43.5270 -65.8160 247° West 458 527 39,000  Level FlightAware
11:09AM 43.4890 -65.9380 247° West 460 529 39,000  Level FlightAware
11:09AM 43.4560 -66.0440 247° West 460 529 39,000  Level FlightAware
11:10AM 43.4170 -66.1670 246° West 459 528 39,000  Level FlightAware
11:11AM 43.3850 -66.2700 247° West 458 527 39,000  Level FlightAware
11:11AM 43.3560 -66.3630 247° West 456 525 39,000  Level FlightAware
11:12AM 43.3170 -66.4840 246° West 457 526 39,000  Level FlightAware
11:13AM 43.2920 -66.5620 246° West 457 526 39,000  Level FlightAware
11:13AM 43.2660 -66.6490 248° West 457 526 39,000  Level FlightAware
11:14AM 43.2310 -66.7550 246° West 458 527 39,000  Level FlightAware
11:15AM 43.1940 -66.8720 247° West 458 527 39,000  Level FlightAware
11:15AM 43.1660 -66.9630 247° West 458 527 39,000  Level FlightAware
11:16AM 43.1220 -67.0960 246° West 455 524 39,000  Level FlightAware
11:17AM 43.0790 -67.2420 248° West 455 524 39,000  Level FlightAware
11:17AM 43.0520 -67.3330 248° West 455 524 39,000  Level FlightAware
11:18AM 43.0110 -67.4630 247° West 457 526 39,000  Level FlightAware
11:19AM 42.9650 -67.6130 247° West 457 526 39,000  Level FlightAware
11:20AM 42.9390 -67.6980 247° West 457 526 39,000  Level FlightAware
11:20AM 42.8970 -67.8310 247° West 457 526 39,000  Level FlightAware
11:21AM 42.8600 -67.9490 247° West 457 526 39,000  Level FlightAware
11:22AM 42.8200 -68.0780 247° West 457 526 39,000  Level FlightAware
11:23AM 42.7790 -68.2060 246° West 458 527 39,000  Level FlightAware
11:23AM 42.7500 -68.2990 247° West 459 528 39,000  Level FlightAware
11:24AM 42.7140 -68.4130 247° West 459 528 39,000  Level FlightAware
11:25AM 42.6900 -68.4860 246° West 457 526 39,000  Level FlightAware
11:26AM 42.6420 -68.6390 247° West 458 527 39,000  Level FlightAware
11:26AM 42.6060 -68.7490 246° West 458 527 39,000  Level FlightAware
11:27AM 42.5770 -68.8410 247° West 458 527 39,000  Level FlightAware
11:28AM 42.5350 -68.9690 246° West 458 527 39,000  Level FlightAware
11:28AM 42.5050 -69.0610 246° West 458 527 39,000  Level FlightAware
11:29AM 42.4660 -69.1790 246° West 458 527 39,000  Level FlightAware
11:30AM 42.4360 -69.2730 247° West 458 527 39,000  Level FlightAware
11:30AM 42.4130 -69.3430 246° West 458 527 39,000  Level FlightAware
11:31AM 42.3800 -69.4440 246° West 457 526 39,000  Level FlightAware
11:31AM 42.3490 -69.5350 245° Southwest 458 527 39,000  Level FlightAware
11:32AM 42.3130 -69.6450 246° West 458 527 39,000  Level FlightAware
11:33AM 42.2710 -69.7710 246° West 458 527 39,000  Level FlightAware
11:33AM 42.2360 -69.8750 246° West 463 533 39,000  Level FlightAware
11:34AM 42.1980 -69.9880 246° West 463 533 39,000  Level FlightAware
11:35AM 42.1580 -70.1060 245° Southwest 462 532 39,000  Level FlightAware
11:36AM 42.1170 -70.2250 245° Southwest 463 533 39,000  Level FlightAware
11:36AM 42.0810 -70.3300 245° Southwest 463 533 39,000  Level FlightAware
11:37AM 42.0440 -70.4380 245° Southwest 462 532 39,000  Level FlightAware
11:38AM 42.0110 -70.5410 247° West 461 531 39,000 -240 Level FlightAware
11:38AM 41.9650 -70.6520 241° Southwest 459 528 38,700 -780 Descending FlightAware
11:39AM 41.9100 -70.7580 235° Southwest 455 524 37,900 -1,140 Descending FlightAware
11:40AM 41.8730 -70.8300 235° Southwest 453 521 37,300 -1,320 Descending FlightAware
11:40AM 41.8250 -70.9210 235° Southwest 456 525 36,400 -1,500 Descending FlightAware
11:41AM 41.7680 -71.0290 235° Southwest 471 542 35,200 -1,800 Descending FlightAware
11:42AM 41.7110 -71.1350 234° Southwest 481 554 33,700 -1,980 Descending FlightAware
11:42AM 41.6650 -71.2230 235° Southwest 477 549 32,600 -1,920 Descending FlightAware
11:43AM 41.6150 -71.3170 235° Southwest 476 548 31,300 -1,980 Descending FlightAware
11:44AM 41.5640 -71.4120 234° Southwest 467 537 30,000 -1,980 Descending FlightAware
11:44AM 41.5180 -71.4980 234° Southwest 453 521 28,700 -2,100 Descending FlightAware
11:45AM 41.4650 -71.5960 234° Southwest 451 519 27,200 -2,160 Descending FlightAware
11:46AM 41.4260 -71.6690 235° Southwest 450 518 26,000 -1,500 Descending FlightAware
11:46AM 41.3660 -71.7790 234° Southwest 447 514 25,100 -1,140 Descending FlightAware
11:47AM 41.2950 -71.9110 234° Southwest 435 501 24,000 -780 Descending FlightAware
11:48AM 41.2640 -71.9660 233° Southwest 435 501 24,000 -2,640 Level FlightAware
11:49AM 41.1580 -72.0690 216° Southwest 426 490 20,100 -2,640 Descending FlightAware
11:49AM 41.1180 -72.1110 218° Southwest 426 490 20,100  Level FlightAware
11:50AM 41.0790 -72.1530 219° Southwest 426 490 20,100  Level FlightAware
11:51AM 41.0270 -72.2090 219° Southwest 426 490 20,100  Level FlightAware
11:51AM 40.9880 -72.2510 219° Southwest 426 490 20,100  Level FlightAware
11:52AM 40.9490 -72.2930 219° Southwest 426 490 20,100 -7,740 Level FlightAware
11:52AM 40.9620 -72.4700 276° West 373 429 12,400 -6,180 Descending FlightAware
11:53AM 40.9250 -72.5450 237° Southwest 373 429 12,400 -540 Level FlightAware
11:54AM 40.8860 -72.6280 238° Southwest 342 394 11,700 -600 Descending FlightAware
11:54AM 40.8590 -72.6830 237° Southwest 342 394 11,700  Level FlightAware
11:55AM 40.8240 -72.7570 238° Southwest 299 344 11,700 -120 Level FlightAware
11:56AM 40.7950 -72.8170 237° Southwest 301 346 11,600 -720 Descending FlightAware
11:56AM 40.7620 -72.8840 237° Southwest 295 339 10,700 -1,440 Descending FlightAware
11:57AM 40.7402 -72.9321 239° Southwest 295 339 9,900 -1,680 Descending FlightAware ADS-B
11:57AM 40.7364 -72.9470 251° West 295 339 9,700 -1,200 Descending FlightAware ADS-B
11:57AM 40.7342 -72.9573 254° West 294 338 9,600 -1,380 Descending FlightAware ADS-B
11:58AM 40.7220 -73.0260 257° West 292 336 8,600 -1,440 Descending FlightAware
11:58AM 40.7110 -73.0790 255° West 289 333 7,900 -1,380 Descending FlightAware
11:59AM 40.6980 -73.1460 256° West 283 326 7,000 -1,380 Descending FlightAware
11:59AM 40.6880 -73.1950 255° West 283 326 6,300 -1,560 Descending FlightAware
12:00PM 40.6790 -73.2370 254° West 282 325 5,600 -1,440 Descending FlightAware
12:00PM 40.6680 -73.2960 256° West 278 320 4,900 -1,200 Descending FlightAware
12:00PM 40.6680 -73.3020 270° West 278 320 4,800 -1,380 Descending FlightAware
12:01PM 40.6820 -73.3590 288° West 270 311 4,000 -1,320 Descending FlightAware
12:01PM 40.6900 -73.3810 296° West 270 311 3,700 -420 Descending FlightAware
12:02PM 40.7050 -73.4250 294° West 269 310 3,700  Level FlightAware
12:02PM 40.7130 -73.4470 296° West 267 307 3,700 -300 Level FlightAware
12:02PM 40.7250 -73.4810 295° West 243 280 3,500 -660 Descending FlightAware
12:03PM 40.7390 -73.5180 297° West 220 253 3,100 -660 Descending FlightAware
12:03PM 40.7500 -73.5500 294° West 213 245 2,900 -480 Descending FlightAware
12:04PM 40.7560 -73.5660 296° West 214 246 2,800 -420 Descending FlightAware
12:04PM 40.7610 -73.5860 288° West 214 246 2,700 -540 Descending FlightAware
12:04PM 40.7560 -73.6110 255° West 203 234 2,500 -660 Descending FlightAware
12:05PM 40.7400 -73.6470 240° Southwest 199 229 2,100 -600 Descending FlightAware
12:05PM 40.7320 -73.6600 231° Southwest 195 224 2,000 -900 Descending FlightAware
12:05PM 40.7200 -73.6780 229° Southwest 189 217 1,600 -1,080 Descending FlightAware
12:06PM 40.7090 -73.6960 231° Southwest 184 212 1,300 -720 Descending FlightAware
12:06PM 40.6940 -73.7210 232° Southwest 156 180 1,000 -780 Descending FlightAware
12:07PM 40.6810 -73.7350 219° Southwest 149 171 600 -840 Descending FlightAware
12:07PM 40.6690 -73.7460 215° Southwest 143 165 400 -720 Descending FlightAware
12:07PM 40.6560 -73.7570 213° Southwest 138 159 100 -720 Descending FlightAware
12:08PM 40.6450 -73.7650 209° Southwest 137 158 -300 Descending FlightAware